Time;durP1;ratioP1;P1;durP2;ratioP2;P2;SDS_P1;SDS_P2;PMS_P1;PMS_P2;Temp;Humidity;BMP_temperature;BMP_pressure;BME280_temperature;BME280_humidity;BME280_pressure;Samples;Min_cycle;Max_cycle;Signal;HPM_P1;HPM_P2
2020/12/27 00:02:06;;;;;;;6.75;2.72;;;-0.90;72.00;;;;;;5078466;28;20348;-70
2020/12/27 00:04:32;;;;;;;4.38;3.00;;;-1.00;72.40;;;;;;5078343;28;20028;-70
2020/12/27 00:07:07;;;;;;;5.53;2.90;;;-1.10;72.20;;;;;;5078384;28;20029;-70
2020/12/27 00:09:32;;;;;;;3.90;2.90;;;-1.30;72.60;;;;;;5078355;28;20107;-70
2020/12/27 00:11:58;;;;;;;4.38;2.70;;;-1.30;72.90;;;;;;5078232;28;20111;-70
2020/12/27 00:14:24;;;;;;;3.33;2.63;;;-1.30;74.30;;;;;;5078251;28;20020;-70
2020/12/27 00:16:49;;;;;;;4.55;2.85;;;-1.20;75.70;;;;;;5078185;28;20033;-70
2020/12/27 00:19:15;;;;;;;4.55;2.35;;;-1.20;73.30;;;;;;5078095;28;20091;-70
2020/12/27 00:21:41;;;;;;;3.45;2.25;;;-1.10;73.00;;;;;;5060359;28;20113;-70
2020/12/27 00:24:09;;;;;;;5.93;2.80;;;-1.20;73.10;;;;;;5077967;28;20302;-70
2020/12/27 00:26:36;;;;;;;3.58;2.60;;;-1.20;74.10;;;;;;5059815;28;20032;-70
2020/12/27 00:29:02;;;;;;;2.75;2.00;;;-1.20;72.10;;;;;;5077931;28;20024;-70
2020/12/27 00:31:27;;;;;;;3.47;2.40;;;-1.20;71.50;;;;;;5077660;28;20048;-70
2020/12/27 00:33:53;;;;;;;2.92;2.10;;;-1.20;71.40;;;;;;5077838;28;20032;-70
2020/12/27 00:36:21;;;;;;;3.15;2.00;;;-1.10;70.60;;;;;;5078074;28;20016;-70
2020/12/27 00:38:47;;;;;;;3.15;2.03;;;-1.10;71.90;;;;;;5077719;28;20051;-70
2020/12/27 00:41:28;;;;;;;2.63;2.15;;;-1.10;72.00;;;;;;5077930;28;20297;-70
2020/12/27 00:43:54;;;;;;;4.25;2.60;;;-1.20;73.20;;;;;;5059803;28;20028;-70
2020/12/27 00:46:20;;;;;;;4.90;2.67;;;-1.30;74.50;;;;;;5077581;28;20032;-70
2020/12/27 00:48:46;;;;;;;3.60;2.40;;;-1.30;74.60;;;;;;5059790;28;20301;-70
2020/12/27 00:51:12;;;;;;;7.30;2.38;;;-1.40;75.00;;;;;;5077378;28;20025;-70
2020/12/27 00:53:38;;;;;;;4.25;3.13;;;-1.40;73.70;;;;;;5077377;28;20055;-70
2020/12/27 00:56:03;;;;;;;3.50;2.40;;;-1.40;74.60;;;;;;5059631;28;20031;-70
2020/12/27 00:58:31;;;;;;;2.72;1.88;;;-1.50;73.50;;;;;;5077313;28;20430;-70
2020/12/27 01:00:57;;;;;;;3.80;2.20;;;-1.60;73.70;;;;;;5077323;28;20028;-70
2020/12/27 01:03:24;;;;;;;2.65;1.77;;;-1.50;71.70;;;;;;5077540;28;20316;-70
2020/12/27 01:05:49;;;;;;;2.13;1.70;;;-1.40;67.40;;;;;;5077172;28;20108;-70
2020/12/27 01:08:16;;;;;;;3.25;2.10;;;-1.30;67.80;;;;;;5077148;28;20100;-70
2020/12/27 01:10:42;;;;;;;2.95;1.60;;;-1.10;67.60;;;;;;5077131;28;20055;-70
2020/12/27 01:13:08;;;;;;;2.28;1.55;;;-1.00;64.90;;;;;;5059402;28;20028;-70
2020/12/27 01:15:33;;;;;;;2.63;1.60;;;-1.00;66.50;;;;;;5059321;28;20020;-70
2020/12/27 01:17:59;;;;;;;2.00;1.25;;;-1.10;65.50;;;;;;5077046;28;20032;-70
2020/12/27 01:20:24;;;;;;;3.17;1.70;;;-1.00;64.70;;;;;;5077039;28;20027;-70
2020/12/27 01:22:50;;;;;;;1.90;1.33;;;-1.10;65.90;;;;;;5077185;28;20321;-70
2020/12/27 01:25:16;;;;;;;2.20;1.42;;;-1.20;67.40;;;;;;5077122;28;20443;-70
2020/12/27 01:27:44;;;;;;;2.55;1.45;;;-1.20;67.10;;;;;;5076864;28;20033;-70
2020/12/27 01:30:10;;;;;;;2.33;1.27;;;-1.20;67.10;;;;;;5076819;28;20028;-70
2020/12/27 01:32:35;;;;;;;2.67;1.85;;;-1.20;67.90;;;;;;5076581;28;20055;-70
2020/12/27 01:35:01;;;;;;;4.90;1.85;;;-1.30;68.50;;;;;;5076751;28;20410;-70
2020/12/27 01:37:27;;;;;;;3.28;1.95;;;-1.40;68.80;;;;;;5077061;28;20123;-70
2020/12/27 01:39:52;;;;;;;3.40;2.25;;;-1.40;70.30;;;;;;5075954;28;20025;-70
2020/12/27 01:42:18;;;;;;;2.70;2.00;;;-1.40;71.60;;;;;;5076697;28;20118;-70
2020/12/27 01:44:43;;;;;;;2.78;1.88;;;-1.40;69.80;;;;;;5076629;28;20028;-70
2020/12/27 01:47:16;;;;;;;3.13;2.25;;;-1.50;70.90;;;;;;5076778;28;20035;-70
2020/12/27 01:49:44;;;;;;;2.70;1.98;;;-1.40;70.20;;;;;;5077189;28;20107;-70
2020/12/27 01:52:10;;;;;;;3.80;2.53;;;-1.50;71.20;;;;;;5076451;28;20040;-70
2020/12/27 01:54:37;;;;;;;3.65;2.20;;;-1.50;72.30;;;;;;5077008;28;20025;-70
2020/12/27 01:57:07;;;;;;;3.92;2.63;;;-1.50;71.00;;;;;;5058821;28;20025;-70
2020/12/27 01:59:33;;;;;;;4.60;2.95;;;-1.50;71.00;;;;;;5076536;28;20027;-70
2020/12/27 02:01:59;;;;;;;3.47;2.40;;;-1.50;71.20;;;;;;5076665;28;20074;-70
2020/12/27 02:04:26;;;;;;;3.75;2.55;;;-1.50;71.90;;;;;;5058719;28;20027;-70
2020/12/27 02:06:55;;;;;;;3.63;2.45;;;-1.60;71.90;;;;;;5058731;28;20055;-70
2020/12/27 02:09:20;;;;;;;2.50;1.98;;;-1.70;72.20;;;;;;5076491;28;20028;-70
2020/12/27 02:12:06;;;;;;;4.38;2.50;;;-1.60;72.00;;;;;;5076406;28;20055;-70
2020/12/27 02:14:32;;;;;;;3.25;2.33;;;-1.60;73.80;;;;;;5075680;28;20086;-70
2020/12/27 02:16:58;;;;;;;3.45;2.20;;;-1.60;73.10;;;;;;5076672;28;20024;-70
2020/12/27 02:19:24;;;;;;;3.80;2.63;;;-1.70;71.80;;;;;;5076437;28;20016;-70
2020/12/27 02:21:50;;;;;;;3.33;2.20;;;-1.70;71.50;;;;;;5076273;28;20438;-70
2020/12/27 02:24:15;;;;;;;3.50;1.70;;;-1.70;72.10;;;;;;5076670;28;20077;-70
2020/12/27 02:26:59;;;;;;;2.75;1.85;;;-1.70;73.30;;;;;;5076315;28;20040;-70
2020/12/27 02:29:28;;;;;;;4.07;2.72;;;-1.80;74.70;;;;;;5076388;28;20025;-70
2020/12/27 02:31:55;;;;;;;3.38;2.60;;;-1.80;75.70;;;;;;5054883;28;20452;-70
2020/12/27 02:34:22;;;;;;;2.97;2.33;;;-1.90;74.90;;;;;;5056209;28;20023;-70
2020/12/27 02:36:48;;;;;;;3.45;2.42;;;-1.90;74.70;;;;;;5055173;28;20036;-70
2020/12/27 02:39:15;;;;;;;3.53;2.47;;;-1.80;75.30;;;;;;5056160;28;20102;-70
2020/12/27 02:41:41;;;;;;;2.85;1.73;;;-1.90;75.60;;;;;;5056110;28;20033;-70
2020/12/27 02:44:08;;;;;;;2.70;1.88;;;-1.90;71.40;;;;;;5056013;28;20363;-70
2020/12/27 02:46:36;;;;;;;2.63;1.92;;;-1.80;68.90;;;;;;5055012;28;20111;-70
2020/12/27 02:49:03;;;;;;;3.92;2.20;;;-1.70;67.50;;;;;;5056030;28;20049;-70
2020/12/27 02:51:31;;;;;;;3.55;2.13;;;-1.50;66.90;;;;;;5057934;28;20025;-70
2020/12/27 02:53:58;;;;;;;3.42;1.50;;;-1.40;66.10;;;;;;5059941;28;20028;-70
2020/12/27 02:56:28;;;;;;;2.00;1.35;;;-1.40;67.60;;;;;;5058667;28;20029;-70
2020/12/27 02:58:57;;;;;;;3.33;1.88;;;-1.40;67.20;;;;;;5059863;28;20051;-70
2020/12/27 03:01:22;;;;;;;2.15;1.50;;;-1.60;67.20;;;;;;5060002;28;20079;-70
2020/12/27 03:03:48;;;;;;;2.63;1.80;;;-1.60;68.70;;;;;;5059861;28;20364;-70
2020/12/27 03:06:14;;;;;;;3.33;2.13;;;-1.70;69.90;;;;;;5059483;28;20052;-70
2020/12/27 03:08:40;;;;;;;3.17;1.52;;;-1.70;70.80;;;;;;5059521;28;20025;-70
2020/12/27 03:11:06;;;;;;;3.50;2.10;;;-1.70;70.80;;;;;;5059388;28;20082;-70
2020/12/27 03:13:33;;;;;;;3.25;2.30;;;-1.80;72.10;;;;;;5059669;28;20363;-70
2020/12/27 03:16:04;;;;;;;3.97;2.33;;;-1.80;72.70;;;;;;5059518;28;20025;-70
2020/12/27 03:18:30;;;;;;;2.78;2.08;;;-1.90;72.00;;;;;;5059537;28;20029;-70
2020/12/27 03:20:57;;;;;;;2.50;1.90;;;-1.90;69.80;;;;;;5059302;28;20075;-70
2020/12/27 03:23:22;;;;;;;3.47;2.17;;;-1.90;70.60;;;;;;5059378;28;20021;-70
2020/12/27 03:25:48;;;;;;;3.22;2.10;;;-1.90;70.70;;;;;;5059401;28;20387;-70
2020/12/27 03:28:14;;;;;;;3.38;2.00;;;-1.80;70.70;;;;;;5058014;28;20021;-70
2020/12/27 03:30:41;;;;;;;2.65;1.75;;;-1.80;71.70;;;;;;5062775;28;20143;-71
2020/12/27 03:33:07;;;;;;;6.50;2.60;;;-1.80;71.70;;;;;;5061157;28;20028;-70
2020/12/27 03:35:32;;;;;;;5.25;2.28;;;-1.90;72.50;;;;;;5078948;28;20029;-70
2020/12/27 03:37:58;;;;;;;3.15;1.70;;;-2.00;72.40;;;;;;5061263;28;20113;-70
2020/12/27 03:40:24;;;;;;;3.25;1.90;;;-2.00;72.70;;;;;;5078911;28;20040;-70
2020/12/27 03:42:51;;;;;;;2.72;2.10;;;-2.10;72.80;;;;;;5079116;28;20435;-70
2020/12/27 03:45:19;;;;;;;4.18;2.13;;;-2.10;73.40;;;;;;5079064;28;20081;-70
2020/12/27 03:47:44;;;;;;;3.42;1.88;;;-2.20;72.30;;;;;;5078720;28;20017;-70
2020/12/27 03:50:10;;;;;;;3.03;1.52;;;-2.20;72.10;;;;;;5060991;28;20037;-70
2020/12/27 03:52:36;;;;;;;2.78;2.15;;;-2.20;70.50;;;;;;5078735;28;20030;-70
2020/12/27 03:55:02;;;;;;;2.72;1.75;;;-2.20;69.60;;;;;;5079085;28;20025;-70
2020/12/27 03:57:27;;;;;;;2.72;1.52;;;-2.20;69.80;;;;;;5078646;28;20027;-70
2020/12/27 03:59:53;;;;;;;3.80;1.83;;;-2.20;70.00;;;;;;5078508;28;20124;-70
2020/12/27 04:02:18;;;;;;;2.38;1.60;;;-2.20;69.70;;;;;;5077959;28;20031;-70
2020/12/27 04:04:44;;;;;;;2.05;1.50;;;-2.20;71.50;;;;;;5078451;28;20028;-70
2020/12/27 04:07:10;;;;;;;2.22;1.45;;;-2.30;70.40;;;;;;5078455;28;20352;-70
2020/12/27 04:09:39;;;;;;;3.85;2.20;;;-2.30;68.10;;;;;;5060588;28;20062;-70
2020/12/27 04:12:04;;;;;;;2.83;1.95;;;-2.10;67.50;;;;;;5078275;28;20016;-70
2020/12/27 04:14:30;;;;;;;3.58;1.63;;;-1.80;66.00;;;;;;5078264;28;20070;-70
2020/12/27 04:16:56;;;;;;;2.40;1.42;;;-1.60;65.00;;;;;;5078481;28;20017;-70
2020/12/27 04:19:21;;;;;;;1.75;1.13;;;-1.40;62.80;;;;;;5078111;28;20427;-70
2020/12/27 04:21:47;;;;;;;5.45;1.25;;;-1.30;60.80;;;;;;5078098;28;20043;-70
2020/12/27 04:24:13;;;;;;;1.95;0.98;;;-1.10;60.00;;;;;;5078403;28;20037;-70
2020/12/27 04:26:40;;;;;;;1.63;0.82;;;-0.90;57.50;;;;;;5078037;28;20040;-70
2020/12/27 04:29:06;;;;;;;1.80;1.27;;;-0.70;58.10;;;;;;5078203;28;20116;-70
2020/12/27 04:31:31;;;;;;;1.80;1.20;;;-0.80;59.20;;;;;;5059947;28;20127;-70
2020/12/27 04:33:59;;;;;;;1.60;1.00;;;-0.90;58.60;;;;;;5077885;28;20029;-70
2020/12/27 04:36:25;;;;;;;1.90;1.30;;;-1.00;59.90;;;;;;5077840;28;20024;-70
2020/12/27 04:38:51;;;;;;;2.53;1.77;;;-1.10;61.60;;;;;;5060052;28;20043;-70
2020/12/27 04:41:18;;;;;;;2.22;1.70;;;-1.20;62.30;;;;;;5059997;28;20020;-70
2020/12/27 04:43:46;;;;;;;2.30;1.10;;;-1.30;63.00;;;;;;5077700;28;20357;-70
2020/12/27 04:46:13;;;;;;;1.42;1.10;;;-1.40;63.40;;;;;;5077576;28;20017;-70
2020/12/27 04:48:42;;;;;;;2.50;1.13;;;-1.40;60.90;;;;;;5077825;28;20024;-70
2020/12/27 04:51:09;;;;;;;1.85;1.23;;;-1.40;62.00;;;;;;5059784;28;20413;-70
2020/12/27 04:53:35;;;;;;;3.25;1.65;;;-1.50;63.50;;;;;;5077743;28;20032;-70
2020/12/27 04:56:02;;;;;;;2.28;1.15;;;-1.60;63.40;;;;;;5059653;28;20036;-70
2020/12/27 04:58:28;;;;;;;4.60;1.73;;;-1.50;62.50;;;;;;5077374;28;20024;-70
2020/12/27 05:00:55;;;;;;;2.83;1.70;;;-1.50;62.50;;;;;;5077367;28;20115;-70
2020/12/27 05:03:21;;;;;;;2.15;1.35;;;-1.60;63.30;;;;;;5077566;28;20056;-70
2020/12/27 05:05:50;;;;;;;2.80;1.52;;;-1.50;62.50;;;;;;5077228;28;20060;-70
2020/12/27 05:08:17;;;;;;;4.43;1.60;;;-1.50;62.70;;;;;;5077163;28;20024;-70
2020/12/27 05:10:43;;;;;;;2.40;1.60;;;-1.50;62.60;;;;;;5077329;28;20457;-70
2020/12/27 05:13:13;;;;;;;2.00;1.58;;;-1.50;62.00;;;;;;5077316;28;20359;-70
2020/12/27 05:15:40;;;;;;;2.22;1.30;;;-1.50;61.90;;;;;;5077319;28;20021;-70
2020/12/27 05:18:07;;;;;;;2.35;1.45;;;-1.50;61.60;;;;;;5077074;28;20427;-70
2020/12/27 05:20:34;;;;;;;1.50;1.15;;;-1.40;61.10;;;;;;5077018;28;20040;-70
2020/12/27 05:23:04;;;;;;;3.15;1.95;;;-1.40;61.20;;;;;;5077245;28;20094;-70
2020/12/27 05:25:33;;;;;;;3.13;1.80;;;-1.50;63.50;;;;;;5059227;28;20055;-70
2020/12/27 05:28:06;;;;;;;3.05;1.30;;;-1.50;61.90;;;;;;5076916;28;20035;-70
2020/12/27 05:30:34;;;;;;;1.98;1.20;;;-1.60;61.50;;;;;;5076565;28;20038;-70
2020/12/27 05:33:02;;;;;;;1.80;1.10;;;-1.70;61.80;;;;;;5077071;28;20036;-70
2020/12/27 05:35:28;;;;;;;2.20;1.30;;;-1.70;63.40;;;;;;5077023;28;20317;-70
2020/12/27 05:37:54;;;;;;;2.28;1.30;;;-1.80;63.10;;;;;;5076735;28;20020;-70
2020/12/27 05:40:20;;;;;;;2.70;1.45;;;-1.90;63.50;;;;;;5077029;28;20035;-70
2020/12/27 05:42:46;;;;;;;3.40;1.42;;;-1.90;64.30;;;;;;5076721;28;20020;-70
2020/12/27 05:45:18;;;;;;;2.05;1.23;;;-1.90;63.80;;;;;;5076828;28;20029;-70
2020/12/27 05:47:46;;;;;;;3.08;1.38;;;-2.00;64.90;;;;;;5076958;28;20024;-70
2020/12/27 05:50:17;;;;;;;2.20;1.50;;;-2.00;63.90;;;;;;5058913;28;20035;-70
2020/12/27 05:52:47;;;;;;;2.28;1.40;;;-2.00;63.60;;;;;;5076744;28;20104;-70
2020/12/27 05:55:21;;;;;;;1.80;1.20;;;-1.90;62.80;;;;;;5076566;28;20037;-70
2020/12/27 05:57:51;;;;;;;1.73;1.10;;;-1.70;61.90;;;;;;5077109;28;20020;-70
2020/12/27 06:00:22;;;;;;;1.90;1.20;;;-1.60;62.30;;;;;;5076553;28;20111;-70
2020/12/27 06:03:01;;;;;;;4.57;1.30;;;-1.60;62.80;;;;;;5076642;28;20025;-70
2020/12/27 06:05:51;;;;;;;2.92;1.40;;;-1.60;64.30;;;;;;5076718;28;20108;-70
2020/12/27 06:08:29;;;;;;;1.75;1.00;;;-1.70;66.70;;;;;;5076588;28;20035;-70
2020/12/27 06:10:58;;;;;;;2.15;1.30;;;-1.80;66.20;;;;;;5076479;28;20032;-70
2020/12/27 06:13:42;;;;;;;5.22;2.40;;;-1.80;65.60;;;;;;5076572;28;20035;-70
2020/12/27 06:16:12;;;;;;;4.05;2.10;;;-2.00;66.60;;;;;;5076454;28;20030;-70
2020/12/27 06:18:39;;;;;;;2.63;1.48;;;-2.10;68.70;;;;;;5058694;28;20023;-70
2020/12/27 06:21:08;;;;;;;6.63;1.30;;;-2.20;65.60;;;;;;5076326;28;20028;-70
2020/12/27 06:23:37;;;;;;;1.92;1.17;;;-2.10;64.40;;;;;;5076520;28;20017;-70
2020/12/27 06:26:05;;;;;;;2.47;1.30;;;-2.10;66.60;;;;;;5078781;28;20032;-70
2020/12/27 06:28:32;;;;;;;1.98;1.05;;;-2.10;66.80;;;;;;5062476;28;20042;-70
2020/12/27 06:31:06;;;;;;;1.77;1.00;;;-2.10;65.10;;;;;;5080340;28;20347;-70
2020/12/27 06:33:37;;;;;;;1.83;1.02;;;-2.10;63.80;;;;;;5080156;28;20119;-70
2020/12/27 06:36:04;;;;;;;1.30;0.85;;;-2.10;65.20;;;;;;5080063;28;20416;-70
2020/12/27 06:38:33;;;;;;;1.83;1.20;;;-2.00;64.40;;;;;;5080064;28;20028;-70
2020/12/27 06:41:10;;;;;;;1.92;1.08;;;-2.10;66.30;;;;;;5079975;28;20104;-70
2020/12/27 06:43:43;;;;;;;1.63;1.15;;;-2.20;66.30;;;;;;5080139;28;20063;-70
2020/12/27 06:46:20;;;;;;;2.28;1.27;;;-2.20;66.80;;;;;;5079876;28;20031;-70
2020/12/27 06:48:47;;;;;;;1.27;1.05;;;-2.30;66.60;;;;;;5080112;28;20060;-70
2020/12/27 06:51:43;;;;;;;1.92;0.98;;;-2.20;65.40;;;;;;5079801;28;20013;-70
2020/12/27 06:54:10;;;;;;;2.33;1.30;;;-2.20;65.30;;;;;;5080071;28;20033;-70
2020/12/27 06:56:41;;;;;;;1.88;1.27;;;-2.30;66.60;;;;;;5061985;28;20332;-70
2020/12/27 06:59:07;;;;;;;2.33;1.05;;;-2.30;67.20;;;;;;5062016;28;20032;-70
2020/12/27 07:01:33;;;;;;;1.15;0.80;;;-2.30;66.60;;;;;;5079610;28;20535;-70
2020/12/27 07:04:18;;;;;;;1.85;1.00;;;-2.40;67.40;;;;;;5061764;28;20024;-70
2020/12/27 07:06:53;;;;;;;1.75;0.93;;;-2.30;67.90;;;;;;5079831;28;20028;-70
2020/12/27 07:09:23;;;;;;;1.10;0.80;;;-2.30;68.80;;;;;;5079622;28;20033;-70
2020/12/27 07:12:10;;;;;;;2.00;1.23;;;-2.20;64.80;;;;;;5079630;28;20105;-70
2020/12/27 07:14:40;;;;;;;1.92;1.13;;;-2.20;64.60;;;;;;5079334;28;20027;-70
2020/12/27 07:17:08;;;;;;;2.10;1.08;;;-2.10;62.30;;;;;;5079330;28;20070;-70
2020/12/27 07:19:36;;;;;;;1.90;1.02;;;-2.00;63.10;;;;;;5079341;28;20025;-70
2020/12/27 07:22:14;;;;;;;1.75;1.05;;;-1.80;61.60;;;;;;5079505;28;20035;-70
2020/12/27 07:24:41;;;;;;;7.90;2.03;;;-1.70;59.90;;;;;;5078765;28;20051;-70
2020/12/27 07:27:12;;;;;;;2.08;0.73;;;-1.50;57.90;;;;;;5079227;28;20123;-70
2020/12/27 07:29:39;;;;;;;1.10;0.70;;;-1.40;56.10;;;;;;5079413;28;20025;-70
2020/12/27 07:32:05;;;;;;;1.45;0.75;;;-1.20;56.20;;;;;;5078710;28;20084;-70
2020/12/27 07:34:32;;;;;;;1.50;1.10;;;-1.10;55.70;;;;;;5079230;28;20102;-70
2020/12/27 07:37:02;;;;;;;2.65;1.20;;;-1.10;54.60;;;;;;5060099;28;20025;-70
2020/12/27 07:39:57;;;;;;;1.73;0.98;;;-1.00;57.10;;;;;;5079363;28;20023;-70
2020/12/27 07:42:33;;;;;;;1.80;1.10;;;-1.00;56.90;;;;;;5079178;28;20052;-70
2020/12/27 07:45:00;;;;;;;;;;;-0.90;55.80;;;;;;5061516;28;20024;-70
2020/12/27 07:47:26;;;;;;;1.85;0.95;;;-0.80;57.70;;;;;;5078802;28;19905;-70
2020/12/27 07:50:14;;;;;;;4.40;1.20;;;-0.70;56.40;;;;;;5079035;28;20060;-70
2020/12/27 07:52:55;;;;;;;2.13;1.20;;;-0.70;56.00;;;;;;5078860;28;20024;-70
2020/12/27 07:55:22;;;;;;;1.77;1.08;;;-0.60;55.70;;;;;;5078682;28;20420;-70
2020/12/27 07:57:48;;;;;;;2.30;1.20;;;-0.60;56.10;;;;;;5078646;28;20439;-71
2020/12/27 08:00:14;;;;;;;1.40;1.05;;;-0.50;55.20;;;;;;5078626;28;20031;-70
2020/12/27 08:02:44;;;;;;;1.60;1.00;;;-0.40;56.70;;;;;;5078515;28;20025;-70
2020/12/27 08:05:11;;;;;;;1.70;1.02;;;-0.40;56.60;;;;;;5078692;28;20039;-70
2020/12/27 08:07:37;;;;;;;1.50;1.10;;;-0.40;55.50;;;;;;5078610;28;20021;-70
2020/12/27 08:10:25;;;;;;;1.90;1.10;;;-0.30;57.60;;;;;;5078356;28;20029;-70
2020/12/27 08:12:59;;;;;;;1.77;1.10;;;-0.20;57.70;;;;;;5078263;28;20031;-70
2020/12/27 08:15:30;;;;;;;2.10;1.30;;;-0.10;59.00;;;;;;5078349;28;20024;-70
2020/12/27 08:18:01;;;;;;;1.60;1.20;;;0.00;58.60;;;;;;5078502;28;20024;-70
2020/12/27 08:20:29;;;;;;;2.33;1.30;;;0.20;56.30;;;;;;5078404;28;20029;-70
2020/12/27 08:23:07;;;;;;;2.40;1.30;;;0.20;56.00;;;;;;5078363;28;20306;-70
2020/12/27 08:25:34;;;;;;;1.70;1.20;;;0.10;55.20;;;;;;5078230;28;20114;-70
2020/12/27 08:28:03;;;;;;;2.03;1.40;;;0.10;55.00;;;;;;5077982;28;20103;-70
2020/12/27 08:30:29;;;;;;;2.58;1.20;;;0.20;54.90;;;;;;5078199;28;20028;-70
2020/12/27 08:33:03;;;;;;;4.07;1.90;;;0.20;55.00;;;;;;5077690;28;20340;-70
2020/12/27 08:35:28;;;;;;;2.03;1.08;;;0.40;55.60;;;;;;5078056;28;20032;-70
2020/12/27 08:38:09;;;;;;;1.65;0.95;;;0.50;55.50;;;;;;5077812;28;20020;-70
2020/12/27 08:40:39;;;;;;;7.10;1.73;;;0.50;53.50;;;;;;5060067;28;20036;-70
2020/12/27 08:43:16;;;;;;;3.00;1.55;;;0.50;55.20;;;;;;5059991;28;20029;-70
2020/12/27 08:45:44;;;;;;;1.73;1.10;;;0.60;55.70;;;;;;5077639;28;20029;-70
2020/12/27 08:48:24;;;;;;;1.90;1.10;;;0.70;60.00;;;;;;5077210;28;20032;-70
2020/12/27 08:50:56;;;;;;;1.98;1.17;;;0.90;56.00;;;;;;5059857;28;20044;-70
2020/12/27 08:53:23;;;;;;;2.70;1.40;;;0.90;56.70;;;;;;5077301;28;20029;-70
2020/12/27 08:55:49;;;;;;;2.08;1.25;;;0.90;60.70;;;;;;5059644;28;20094;-70
2020/12/27 08:58:14;;;;;;;3.38;1.48;;;0.90;58.40;;;;;;5059737;28;20048;-70
2020/12/27 09:00:40;;;;;;;3.92;1.42;;;1.00;56.90;;;;;;5059683;28;20031;-70
2020/12/27 09:03:10;;;;;;;2.25;1.40;;;1.10;54.70;;;;;;5077602;28;20290;-70
2020/12/27 09:05:38;;;;;;;2.78;1.30;;;1.10;54.60;;;;;;5077465;28;20135;-70
2020/12/27 09:08:20;;;;;;;1.70;1.10;;;1.20;56.60;;;;;;5077054;28;20404;-70
2020/12/27 09:10:49;;;;;;;2.53;1.35;;;1.30;54.80;;;;;;5077171;28;20054;-70
2020/12/27 09:13:16;;;;;;;2.90;1.60;;;1.30;52.40;;;;;;5077258;28;20028;-70
2020/12/27 09:15:50;;;;;;;1.83;1.23;;;1.20;52.70;;;;;;5077072;28;20089;-70
2020/12/27 09:18:26;;;;;;;3.17;1.40;;;1.20;54.50;;;;;;5077002;28;20484;-70
2020/12/27 09:21:00;;;;;;;3.58;1.27;;;1.20;55.60;;;;;;5077125;28;20327;-70
2020/12/27 09:23:26;;;;;;;3.38;1.10;;;1.30;54.20;;;;;;5077141;28;20028;-70
2020/12/27 09:26:07;;;;;;;2.05;1.33;;;1.50;53.90;;;;;;5077166;28;20039;-70
2020/12/27 09:28:36;;;;;;;3.38;1.42;;;1.60;55.70;;;;;;5076883;28;20129;-70
2020/12/27 09:31:03;;;;;;;2.38;1.30;;;1.80;53.20;;;;;;5076762;28;20029;-71
2020/12/27 09:33:30;;;;;;;2.40;1.50;;;1.90;52.20;;;;;;5076768;28;20071;-70
2020/12/27 09:36:00;;;;;;;2.22;1.50;;;2.00;52.60;;;;;;5076756;28;20032;-70
2020/12/27 09:38:29;;;;;;;3.50;1.55;;;2.20;52.90;;;;;;5077219;28;20017;-71
2020/12/27 09:41:09;;;;;;;2.40;1.65;;;2.70;51.40;;;;;;5076798;28;20025;-71
2020/12/27 09:44:03;;;;;;;3.63;1.75;;;3.60;50.10;;;;;;5076909;28;20056;-71
2020/12/27 09:46:51;;;;;;;2.60;1.40;;;5.00;48.40;;;;;;5077292;28;20024;-71
2020/12/27 09:49:23;;;;;;;2.35;1.55;;;6.40;45.80;;;;;;5058880;28;20093;-71
2020/12/27 09:52:08;;;;;;;2.33;1.50;;;7.30;41.70;;;;;;5058797;28;20033;-71
2020/12/27 09:54:35;;;;;;;1.85;1.40;;;8.00;40.60;;;;;;5077014;28;20074;-71
2020/12/27 09:57:20;;;;;;;1.92;1.17;;;8.20;38.70;;;;;;5076635;28;20094;-71
2020/12/27 09:59:49;;;;;;;2.40;1.23;;;8.70;40.60;;;;;;5058111;28;20056;-71
2020/12/27 10:02:16;;;;;;;1.83;1.48;;;8.90;37.50;;;;;;5076496;28;20020;-71
2020/12/27 10:04:42;;;;;;;1.85;1.00;;;8.80;37.90;;;;;;5076447;28;20020;-71
2020/12/27 10:07:09;;;;;;;2.03;1.23;;;9.40;36.90;;;;;;5075283;28;20009;-71
2020/12/27 10:09:37;;;;;;;1.95;1.13;;;9.90;39.70;;;;;;5074902;28;20028;-71
2020/12/27 10:12:04;;;;;;;4.53;1.20;;;10.20;39.30;;;;;;5076436;28;20023;-71
2020/12/27 10:14:31;;;;;;;2.65;1.33;;;10.50;37.50;;;;;;5076483;28;20036;-71
2020/12/27 10:16:57;;;;;;;2.55;1.75;;;10.30;35.90;;;;;;5076374;28;20466;-71
2020/12/27 10:19:24;;;;;;;2.17;1.40;;;10.20;36.50;;;;;;5076424;28;20108;-71
2020/12/27 10:21:50;;;;;;;1.65;1.17;;;10.30;37.20;;;;;;5076400;28;20103;-71
2020/12/27 10:24:16;;;;;;;1.92;1.30;;;10.20;37.40;;;;;;5076240;28;20103;-71
2020/12/27 10:26:51;;;;;;;4.38;1.38;;;10.00;38.10;;;;;;5076589;28;20028;-71
2020/12/27 10:29:18;;;;;;;3.13;1.85;;;10.00;38.30;;;;;;5076385;28;20056;-71
2020/12/27 10:31:58;;;;;;;2.25;1.45;;;10.20;36.40;;;;;;5075899;28;20340;-71
2020/12/27 10:34:31;;;;;;;2.22;1.50;;;10.00;37.00;;;;;;5076271;28;20028;-71
2020/12/27 10:36:58;;;;;;;3.05;1.55;;;10.20;38.30;;;;;;5076511;28;20028;-71
2020/12/27 10:39:25;;;;;;;1.48;1.17;;;10.20;36.70;;;;;;5076519;28;20021;-71
2020/12/27 10:41:54;;;;;;;2.40;1.70;;;10.00;35.50;;;;;;5076237;28;20078;-71
2020/12/27 10:44:21;;;;;;;3.20;2.10;;;10.20;36.30;;;;;;5076089;28;20175;-71
2020/12/27 10:46:49;;;;;;;4.25;1.40;;;10.10;37.30;;;;;;5076549;28;20082;-71
2020/12/27 10:49:22;;;;;;;1.73;1.05;;;10.20;37.80;;;;;;5076113;28;20029;-71
2020/12/27 10:51:48;;;;;;;2.97;1.48;;;10.00;35.10;;;;;;5076368;28;20024;-71
2020/12/27 10:54:14;;;;;;;2.47;1.55;;;9.90;35.90;;;;;;5076395;28;20036;-71
2020/12/27 10:56:42;;;;;;;1.92;1.50;;;9.90;35.90;;;;;;5058276;28;20039;-71
2020/12/27 10:59:08;;;;;;;1.88;1.20;;;9.90;35.60;;;;;;5058275;28;20414;-72
2020/12/27 11:01:34;;;;;;;2.28;1.30;;;10.10;34.30;;;;;;5076028;28;20051;-71
2020/12/27 11:04:00;;;;;;;2.75;1.52;;;10.10;34.40;;;;;;5076230;28;20320;-71
2020/12/27 11:06:32;;;;;;;2.22;1.70;;;10.20;35.40;;;;;;5058197;28;20021;-71
2020/12/27 11:09:04;;;;;;;1.80;1.30;;;10.20;36.10;;;;;;5075941;28;20440;-71
2020/12/27 11:11:29;;;;;;;2.05;1.10;;;10.10;37.00;;;;;;5077293;28;20032;-71
2020/12/27 11:13:55;;;;;;;2.63;1.60;;;10.20;35.00;;;;;;5061618;28;20127;-71
2020/12/27 11:16:21;;;;;;;1.98;1.23;;;10.30;34.90;;;;;;5079647;28;20017;-71
2020/12/27 11:47:05;;;;;;;2.55;1.67;;;9.20;36.70;;;;;;5055344;28;20106;-71
2020/12/27 11:49:30;;;;;;;2.05;1.38;;;9.00;37.20;;;;;;5078624;28;20328;-71
2020/12/27 11:51:56;;;;;;;1.90;1.38;;;9.10;37.20;;;;;;5078927;28;20024;-71
2020/12/27 11:54:22;;;;;;;2.22;1.60;;;9.40;37.90;;;;;;5060804;28;20412;-71
2020/12/27 11:56:48;;;;;;;1.73;1.30;;;9.10;36.40;;;;;;5078655;28;20103;-71
2020/12/27 11:59:14;;;;;;;2.88;1.50;;;9.40;39.00;;;;;;5078613;28;20017;-71
2020/12/27 12:01:41;;;;;;;2.58;1.40;;;9.80;38.20;;;;;;5078573;28;20078;-71
2020/12/27 12:04:06;;;;;;;2.55;1.77;;;9.90;36.80;;;;;;5078599;28;20051;-71
2020/12/27 12:06:32;;;;;;;2.85;1.60;;;9.80;35.80;;;;;;5060802;28;20075;-71
2020/12/27 12:08:58;;;;;;;2.30;1.50;;;9.70;37.30;;;;;;5078472;28;20016;-71
2020/12/27 12:11:23;;;;;;;2.95;1.92;;;9.70;37.30;;;;;;5078400;28;20028;-71
2020/12/27 12:13:50;;;;;;;2.15;1.70;;;9.80;36.80;;;;;;5078313;28;20032;-71
2020/12/27 12:16:22;;;;;;;2.08;1.48;;;9.90;40.40;;;;;;5078327;28;20025;-71
2020/12/27 12:18:48;;;;;;;2.33;1.50;;;9.60;39.60;;;;;;5078274;28;20024;-71
2020/12/27 12:21:14;;;;;;;5.00;1.42;;;9.40;35.90;;;;;;5078184;28;20020;-71
2020/12/27 12:23:40;;;;;;;2.05;1.30;;;9.20;35.50;;;;;;5077791;28;20041;-71
2020/12/27 12:26:06;;;;;;;1.50;0.93;;;9.10;38.20;;;;;;5078051;28;20032;-71
2020/12/27 12:28:31;;;;;;;2.58;1.60;;;8.90;38.30;;;;;;5078036;28;20408;-71
2020/12/27 12:30:57;;;;;;;2.53;1.15;;;8.80;38.10;;;;;;5078043;28;20405;-71
2020/12/27 12:33:23;;;;;;;2.22;2.00;;;8.90;37.90;;;;;;5078100;28;20090;-71
2020/12/27 12:35:49;;;;;;;3.67;2.10;;;8.90;38.00;;;;;;5077833;28;20396;-71
2020/12/27 12:38:15;;;;;;;2.78;1.55;;;8.50;37.30;;;;;;5060116;28;20021;-71
2020/12/27 12:40:42;;;;;;;2.30;1.40;;;8.40;38.80;;;;;;5060073;28;20100;-71
2020/12/27 12:43:07;;;;;;;2.40;1.70;;;8.30;38.70;;;;;;5060056;28;20033;-71
2020/12/27 12:45:33;;;;;;;2.65;1.75;;;8.10;39.40;;;;;;5077723;28;20016;-71
2020/12/27 12:47:59;;;;;;;2.33;1.70;;;8.00;39.50;;;;;;5056421;28;20056;-71
2020/12/27 12:50:25;;;;;;;3.03;2.15;;;7.90;39.80;;;;;;5056560;28;20370;-71
2020/12/27 12:52:50;;;;;;;3.83;2.60;;;7.90;39.70;;;;;;5057480;28;20025;-71
2020/12/27 12:55:16;;;;;;;3.95;2.65;;;7.70;42.30;;;;;;5057489;28;20028;-71
2020/12/27 12:57:42;;;;;;;4.35;3.15;;;7.40;41.30;;;;;;5056435;28;20033;-71
2020/12/27 13:00:08;;;;;;;2.78;2.20;;;7.10;41.90;;;;;;5057511;28;20028;-71
2020/12/27 13:02:35;;;;;;;3.10;2.20;;;6.60;42.80;;;;;;5057485;28;20029;-71
2020/12/27 13:05:01;;;;;;;4.47;2.30;;;6.10;43.10;;;;;;5057518;28;20107;-71
2020/12/27 13:07:26;;;;;;;3.25;2.22;;;5.80;45.20;;;;;;5057572;28;20136;-71
2020/12/27 13:09:53;;;;;;;2.78;1.98;;;5.40;44.00;;;;;;5057565;28;20036;-71
2020/12/27 13:12:18;;;;;;;4.07;2.20;;;5.00;45.70;;;;;;5057135;28;20029;-71
2020/12/27 13:14:44;;;;;;;3.65;2.15;;;4.70;47.70;;;;;;5057147;28;20405;-70
2020/12/27 13:17:10;;;;;;;2.88;1.90;;;4.50;47.00;;;;;;5056144;28;20067;-71
2020/12/27 13:19:35;;;;;;;4.90;2.00;;;4.30;47.30;;;;;;5056175;28;20049;-70
2020/12/27 13:22:01;;;;;;;2.80;1.98;;;4.20;47.40;;;;;;5057175;28;20111;-70
2020/12/27 13:24:27;;;;;;;3.20;2.13;;;4.10;46.30;;;;;;5055870;28;20108;-71
2020/12/27 13:26:52;;;;;;;2.42;1.58;;;4.10;46.90;;;;;;5057078;28;20056;-70